Flugplatz Augsburg (EDMA)

Hier findest Du alle Informationen zum Flugplatz Augsburg (EDMA).

Informationen für Piloten zum Flugplatz Augsburg

Hier findest Du alle relevanten Informationen, die Du als Pilot benötigst, um Augsburg anzufliegen.

Flugplatz: Augsburg ICAO-Code: EDMA
Frequenz Turm: 124,975 Mhz GAFOR Gebiet: 72
Frequenz Ground: 124,975 Mhz Mogas: nein
Platzrunde: - Landegebühr: -
Platzhöhe: - Sunrise: 05:37 Uhr UTC
Pisten: 07/25 - 1.280 m x 30 m, ASPH Sunset: 16:25 Uhr UTC

Flugwetter am Flugplatz Augsburg

Die METAR Information stammen aus EDMA.

METAR Code:
2021/09/26 20:50
EDMA 262050Z AUTO 27010KT 9999 BKN074/// OVC084/// 16/15 Q1020

Temperatur: 4,2 °C Niederschlag: - Wind: 1,0 kt
Temperatur (min.): -0,1 °C Luftdruck: 1021 hPa Windrichtung: -
Temperatur (max.): 6,0 °C Luftfeuchtigkeit: 95 % Bewölkung: 8/8

Flugschulen am Flugplatz Augsburg

Am Flugplatz Augsburg gibt es 2 Flugschulen.

Benachbarte Flugplätze und Flugschulen

Es gibt 16 weitere Flugplätze in einem Umkreis von 50 km um den Flugplatz Augsburg.

Jetzt anmelden

Passwort vergessen

Umfrage Archiv

Wie habt Ihr Eure UL-Lizenz erworben?

Ausbildung als Fußgänger
67.2 %
Umschulung von Motorflug
16.4 %
Umschulung von Segelflug
14.8 %
Umschulung von Helikopter
1.6 %
Stimmen: 122 | Diskussion
Anzeige: Roland Aircraft
Statistik Alle Mitglieder

Aktuell sind 41 Besucher online, davon 1 Mitglied und 40 Gäste.


Mitglieder online:
hennes 

Anzeige: VFR Sprechfunk Simulator Anzeige: Pocket FMS